Wednesday, September 3, 2014, 12:34 AM EDT

KPTB, Petersburg, Dinwiddie County Airport

Location: Petersburg, VA, United States Lat: 37.183
Local Time: 12:34 AM EDT ( 4:34 GMT) Lon: -77.517
Time Zone: US/Eastern Elev: 193 ft

Show me the last for .
Show Decoded

2014-09-03 00:15 METAR KPTB 030415Z AUTO 22004KT 10SM CLR 25/20 A2997 RMK AO2 LTG DSNT NE
                 T02520200 =
2014-09-02 23:55 METAR KPTB 030355Z AUTO 21005KT 10SM SCT070 26/20 A2996 RMK AO2 T02590200 =
2014-09-02 23:35 METAR KPTB 030335Z AUTO 21004KT 10SM SCT070 26/20 A2996 RMK AO2 LTG DSNT N
                 T02620200 =
2014-09-02 23:15 METAR KPTB 030315Z AUTO 22005KT 10SM CLR 26/20 A2995 RMK AO2 LTG DSNT N AND NW
                 T02640200 =
2014-09-02 22:55 METAR KPTB 030255Z AUTO 22005KT 10SM CLR 27/20 A2995 RMK AO2 LTG DSNT N AND NW
                 T02660201 =
2014-09-02 22:35 METAR KPTB 030235Z AUTO 21006KT 10SM CLR 27/20 A2994 RMK AO2 LTG DSNT NW
                 T02680202 =
2014-09-02 22:15 METAR KPTB 030215Z AUTO 21006KT 10SM CLR 27/21 A2995 RMK AO2 T02730205 =
2014-09-02 21:55 METAR KPTB 030155Z AUTO 21005KT 10SM CLR 28/21 A2995 RMK AO2 T02770205 =
2014-09-02 21:35 METAR KPTB 030135Z AUTO 22007KT 10SM CLR 28/21 A2994 RMK AO2 T02790209 =
2014-09-02 21:15 METAR KPTB 030115Z AUTO 00000KT 10SM CLR 24/22 A2995 RMK AO2 T02420221 =
2014-09-02 20:55 METAR KPTB 030055Z AUTO 00000KT 10SM CLR 24/22 A2994 RMK AO2 T02420221 =
2014-09-02 20:35 METAR KPTB 030035Z AUTO 00000KT 10SM CLR 24/22 A2993 RMK AO2 T02420220 =
2014-09-02 20:15 METAR KPTB 030015Z AUTO 00000KT 10SM CLR 26/22 A2993 RMK AO2 T02560215 =
2014-09-02 19:55 METAR KPTB 022355Z AUTO 00000KT 10SM CLR 26/21 A2992 RMK AO2 T02620212 10350
                 20262 =
2014-09-02 19:35 METAR KPTB 022335Z AUTO 00000KT 10SM CLR 28/21 A2993 RMK AO2 T02780211 =
2014-09-02 19:15 METAR KPTB 022315Z AUTO 00000KT 10SM CLR 29/20 A2992 RMK AO2 T02940200 =
2014-09-02 18:55 METAR KPTB 022255Z AUTO 20003KT 10SM CLR 30/20 A2992 RMK AO2 T03020200 =
2014-09-02 18:35 METAR KPTB 022235Z AUTO 20004KT 10SM CLR 31/20 A2991 RMK AO2 T03120196 =
2014-09-02 18:15 METAR KPTB 022215Z AUTO 21006KT 10SM CLR 32/19 A2992 RMK AO2 T03210191 =
2014-09-02 17:55 METAR KPTB 022155Z AUTO 20008KT 170V240 10SM CLR 33/18 A2991 RMK AO2 T03250184 =
2014-09-02 17:35 METAR KPTB 022135Z AUTO 20006KT 10SM CLR 33/19 A2992 RMK AO2 T03290186 =
2014-09-02 17:15 METAR KPTB 022115Z AUTO 21007KT 10SM CLR 33/19 A2992 RMK AO2 T03330185 =
2014-09-02 16:55 METAR KPTB 022055Z AUTO 20006KT 10SM CLR 34/18 A2993 RMK AO2 T03360184 =
2014-09-02 16:35 METAR KPTB 022035Z AUTO 22009KT 10SM CLR 34/19 A2993 RMK AO2 LTG DSNT NW
                 T03370192 =
2014-09-02 16:15 METAR KPTB 022015Z AUTO 21009KT 7SM SCT050 34/19 A2994 RMK AO2 T03380191 =
2014-09-02 15:55 METAR KPTB 021955Z AUTO 21007G14KT 170V230 10SM SCT060 34/19 A2994 RMK AO2
                 T03410187 =
2014-09-02 15:35 METAR KPTB 021935Z AUTO 20008KT 7SM CLR 34/19 A2995 RMK AO2 T03440186 =
2014-09-02 15:15 METAR KPTB 021915Z AUTO 22007G10KT 10SM CLR 34/19 A2995 RMK AO2 T03440188 =
2014-09-02 14:55 METAR KPTB 021855Z AUTO 23011KT 10SM CLR 35/17 A2997 RMK AO2 T03450166 =
2014-09-02 14:35 METAR KPTB 021835Z AUTO 21006KT 7SM CLR 35/18 A2997 RMK AO2 T03450183 =
2014-09-02 14:15 METAR KPTB 021815Z AUTO 21007KT 7SM CLR 35/18 A2998 RMK AO2 T03450183 =
2014-09-02 13:55 METAR KPTB 021755Z AUTO 22009G14KT 10SM CLR 34/18 A2998 RMK AO2 T03420180 10345
                 20231 =
2014-09-02 13:15 METAR KPTB 021715Z AUTO 25007KT 10SM CLR 34/18 A2999 RMK AO2 T03420183 =
2014-09-02 12:55 METAR KPTB 021655Z AUTO 24007KT 10SM CLR 34/19 A2999 RMK AO2 T03390189 =
2014-09-02 12:35 METAR KPTB 021635Z AUTO 23005KT 10SM CLR 34/19 A3000 RMK AO2 T03350191 =
2014-09-02 12:15 METAR KPTB 021615Z AUTO 23006KT 10SM CLR 33/20 A3001 RMK AO2 T03320202 =
2014-09-02 11:55 METAR KPTB 021555Z AUTO 25006KT 10SM CLR 33/20 A3002 RMK AO2 T03250200 =
2014-09-02 11:35 METAR KPTB 021535Z AUTO 25006KT 10SM CLR 32/21 A3003 RMK AO2 T03200207 =
2014-09-02 11:15 METAR KPTB 021515Z AUTO 23007KT 10SM CLR 31/21 A3003 RMK AO2 T03120206 =
2014-09-02 10:55 METAR KPTB 021455Z AUTO 24008KT 10SM CLR 31/21 A3003 RMK AO2 T03100205 =
2014-09-02 10:35 METAR KPTB 021435Z AUTO 24006KT 10SM CLR 31/21 A3004 RMK AO2 T03060209 =
2014-09-02 10:15 METAR KPTB 021415Z AUTO 23005KT 10SM CLR 30/21 A3003 RMK AO2 T02970207 =
2014-09-02 09:55 METAR KPTB 021355Z AUTO 23005KT 10SM CLR 29/21 A3003 RMK AO2 T02910211 =
2014-09-02 09:35 METAR KPTB 021335Z AUTO 22005KT 10SM CLR 28/22 A3003 RMK AO2 T02800215 =
2014-09-02 09:15 METAR KPTB 021315Z AUTO 23005KT 10SM CLR 27/21 A3003 RMK AO2 T02700211 =
2014-09-02 08:55 METAR KPTB 021255Z AUTO 23004KT 10SM CLR 26/21 A3003 RMK AO2 T02610211 =
2014-09-02 08:35 METAR KPTB 021235Z AUTO 22005KT 10SM CLR 25/22 A3003 RMK AO2 T02520216 =
2014-09-02 08:15 METAR KPTB 021215Z AUTO 22003KT 10SM CLR 24/22 A3004 RMK AO2 T02410218 =
2014-09-02 07:55 METAR KPTB 021155Z AUTO 22003KT 10SM CLR 23/22 A3003 RMK AO2 T02290215 10229
                 20200 =
2014-09-02 07:35 METAR KPTB 021135Z AUTO 00000KT 7SM CLR 22/21 A3003 RMK AO2 T02180208 =
2014-09-02 07:15 METAR KPTB 021115Z AUTO 00000KT 7SM SCT120 21/20 A3003 RMK AO2 T02100201 =
2014-09-02 06:55 METAR KPTB 021055Z AUTO 00000KT 7SM CLR 20/20 A3002 RMK AO2 T02020195 =
2014-09-02 06:15 METAR KPTB 021015Z AUTO 00000KT 7SM CLR 21/20 A3002 RMK AO2 T02070197 =
2014-09-02 05:55 METAR KPTB 020955Z AUTO 00000KT 10SM CLR 21/20 A3001 RMK AO2 T02090200 =
2014-09-02 05:35 METAR KPTB 020935Z AUTO 00000KT 10SM CLR 21/20 A3001 RMK AO2 T02090200 =
2014-09-02 05:15 METAR KPTB 020915Z AUTO 00000KT 10SM CLR 21/20 A3001 RMK AO2 T02050196 =
2014-09-02 04:55 METAR KPTB 020855Z AUTO 00000KT 10SM CLR 21/20 A3000 RMK AO2 T02090199 =
2014-09-02 04:35 METAR KPTB 020835Z AUTO 00000KT 10SM CLR 22/21 A3000 RMK AO2 T02150205 =
2014-09-02 04:15 METAR KPTB 020815Z AUTO 00000KT 10SM CLR 22/20 A3000 RMK AO2 T02150201 =
2014-09-02 03:55 METAR KPTB 020755Z AUTO 00000KT 10SM CLR 22/20 A3001 RMK AO2 T02150201 =
2014-09-02 03:35 METAR KPTB 020735Z AUTO 00000KT 10SM CLR 23/21 A3001 RMK AO2 T02260208 =
2014-09-02 03:15 METAR KPTB 020715Z AUTO 00000KT 10SM SCT080 21/20 A3001 RMK AO2 T02060196 =
2014-09-02 02:35 METAR KPTB 020635Z AUTO 00000KT 10SM CLR 21/20 A3001 RMK AO2 T02080198 =
2014-09-02 02:15 METAR KPTB 020615Z AUTO 00000KT 10SM CLR 21/20 A3002 RMK AO2 T02080197 =
2014-09-02 01:55 METAR KPTB 020555Z AUTO 00000KT 10SM CLR 21/20 A3002 RMK AO2 T02110200 10272
                 20210 =
2014-09-02 01:35 METAR KPTB 020535Z AUTO 00000KT 10SM CLR 22/20 A3002 RMK AO2 T02150204 =
2014-09-02 01:15 METAR KPTB 020515Z AUTO 00000KT 10SM CLR 21/20 A3002 RMK AO2 T02140202 =
2014-09-02 00:55 METAR KPTB 020455Z AUTO 00000KT 10SM CLR 21/20 A3002 RMK AO2 T02120201 403320212
                 =
2014-09-02 00:35 METAR KPTB 020435Z AUTO 00000KT 10SM CLR 22/21 A3002 RMK AO2 T02240207 =

Support USWX by starting your Amazon purchase here.